• Join FlightAware (Why Join?)
  • Login
  • US Flag 
03:07AM EDT


 

Airport Tracker/Info


-or-


 

Live Flight TrackerFlight Track Log ✈ N544LM ✈ 25-Apr-2012 ✈ PANC - PABE / BET

Flight Track Log - Related Links

Times and Time Zones

All times are in EDT time to prevent confusion due to time zone crossing. See the N544LM flight status page for this flight to view local times or setup timezone preferences in your user account.

Time Position Orientation Groundspeed Altitude Reporting Facility
EDT Latitude Longitude Course Direction KTS MPH feet Rate Location/Type
08:29PM 61.1768 -150.2796 167° South  Level Estimated
08:30PM 61.1500 -150.2667 270° West 250 288 6,700  Level Anchorage Center
08:31PM 61.1500 -150.4167 270° West 280 322 10,500 3,300 Climbing Anchorage Center
08:32PM 61.1500 -150.6167 270° West 340 391 13,400 3,600 Climbing Anchorage Center
08:33PM 61.1500 -150.8167 270° West 330 380 17,900 3,660 Climbing Anchorage Center
08:34PM 61.1500 -151.0000 270° West 350 403 20,800 2,580 Climbing Anchorage Center
08:35PM 61.1500 -151.2333 270° West 390 449 23,100 2,460 Climbing Anchorage Center
08:36PM 61.1500 -151.4500 270° West 390 449 25,800 2,340 Climbing Anchorage Center
08:37PM 61.1500 -151.6833 270° West 400 460 27,900 2,100 Climbing Anchorage Center
08:38PM 61.1500 -151.9167 270° West 420 483 30,000 1,560 Climbing Anchorage Center
08:39PM 61.1500 -152.1667 270° West 430 495 31,100 1,320 Climbing Anchorage Center
08:40PM 61.1500 -152.4167 270° West 430 495 32,700 1,320 Climbing Anchorage Center
08:41PM 61.1500 -152.6500 270° West 420 483 33,800 960 Climbing Anchorage Center
08:42PM 61.1500 -152.9000 270° West 420 483 34,700 780 Climbing Anchorage Center
08:43PM 61.1500 -153.1500 270° West 420 483 35,400 600 Climbing Anchorage Center
08:44PM 61.1500 -153.3833 270° West 420 483 36,000 240 Climbing Anchorage Center
08:45PM 61.1500 -153.6333 262° West 430 495 36,000  Level Anchorage Center
08:46PM 61.1333 -153.8833 270° West 430 495 36,000  Level Anchorage Center
08:47PM 61.1333 -154.1333 270° West 430 495 36,000  Level Anchorage Center
08:48PM 61.1333 -154.4000 262° West 440 506 36,000  Level Anchorage Center
08:49PM 61.1167 -154.6500 270° West 450 518 36,000  Level Anchorage Center
08:50PM 61.1167 -154.9000 270° West 440 506 36,000  Level Anchorage Center
08:51PM 61.1167 -155.1667 262° West 440 506 36,000  Level Anchorage Center
08:52PM 61.1000 -155.4167 270° West 450 518 36,000  Level Anchorage Center
08:53PM 61.1000 -155.6667 264° West 430 495 36,000  Level Anchorage Center
08:54PM 61.0833 -155.9833 270° West 440 506 36,000  Level Anchorage Center
08:55PM 61.0833 -156.2000 263° West 440 506 36,000  Level Anchorage Center
08:56PM 61.0667 -156.4667 270° West 440 506 36,000  Level Anchorage Center
08:57PM 61.0667 -156.7167 262° West 440 506 36,000  Level Anchorage Center
08:58PM 61.0500 -156.9667 270° West 440 506 36,000  Level Anchorage Center
08:59PM 61.0500 -157.2167 263° West 440 506 36,000  Level Anchorage Center
09:00PM 61.0333 -157.4833 262° West 440 506 36,000  Level Anchorage Center
09:01PM 61.0167 -157.7333 270° West 440 506 36,000  Level Anchorage Center
09:02PM 61.0167 -157.9833 262° West 440 506 36,000  Level Anchorage Center
09:03PM 61.0000 -158.2333 262° West 440 506 36,000 -240 Level Anchorage Center
09:04PM 60.9833 -158.4833 262° West 430 495 35,600 -1,800 Descending Anchorage Center
09:05PM 60.9667 -158.7167 270° West 420 483 32,400 -3,420 Descending Anchorage Center
09:06PM 60.9667 -158.9667 263° West 430 495 28,800 -3,300 Descending Anchorage Center
09:07PM 60.9500 -159.2333 262° West 440 506 25,900 -2,820 Descending Anchorage Center
09:08PM 60.9333 -159.4667 262° West 430 495 23,200 -2,640 Descending Anchorage Center
09:09PM 60.9167 -159.7167 262° West 430 495 20,600 -2,580 Descending Anchorage Center
09:10PM 60.9000 -159.9500 263° West 410 472 18,100 -2,400 Descending Anchorage Center
09:11PM 60.8833 -160.2333 260° West 390 449 15,800 -1,980 Descending Anchorage Center
09:12PM 60.8667 -160.4333 257° West 340 391 14,200 -1,740 Descending Anchorage Center
09:13PM 60.8500 -160.5833 270° West 330 380 12,400 -2,040 Descending Anchorage Center
09:14PM 60.8500 -160.7833 270° West 310 357 10,200 -2,100 Descending Anchorage Center
09:15PM 60.8500 -160.9333 246° West 260 299 8,200 -1,980 Descending Anchorage Center
09:16PM 60.8167 -161.0833 270° West 260 299 6,300 -1,740 Descending Anchorage Center
09:17PM 60.8167 -161.2333 256° West 260 299 4,700 -1,440 Descending Anchorage Center
09:18PM 60.8000 -161.3667 262° West 250 288 3,500 -1,200 Descending Anchorage Center
09:28PM 60.7667 -161.8333 351° North  Level FlightAware Approximate
09:29PM 60.8666 -161.8658 171° South  Level Estimated
09:30PM 60.7667 -161.8333 351° North  Level FlightAware Approximate
09:31PM 60.8666 -161.8658 351° North  Level Estimated